Time;durP1;ratioP1;P1;durP2;ratioP2;P2;SDS_P1;SDS_P2;PMS_P1;PMS_P2;Temp;Humidity;BMP_temperature;BMP_pressure;BME280_temperature;BME280_humidity;BME280_pressure;Samples;Min_cycle;Max_cycle;Signal;HPM_P1;HPM_P2
2023/05/01 00:00:09;;;;;;;7.53;5.05;;;;;;;;;;5010350;28;20061;-87
2023/05/01 00:02:36;;;;;;;7.15;5.07;;;;;;;;;;5007666;28;20038;-88
2023/05/01 00:05:02;;;;;;;7.15;5.03;;;;;;;;;;5004898;28;20385;-88
2023/05/01 00:07:29;;;;;;;7.22;5.05;;;;;;;;;;4997849;28;20061;-88
2023/05/01 00:09:58;;;;;;;7.70;5.43;;;;;;;;;;4997827;28;20041;-87
2023/05/01 00:12:25;;;;;;;8.73;5.80;;;;;;;;;;5014028;28;20034;-88
2023/05/01 00:14:50;;;;;;;7.13;5.50;;;;;;;;;;4995472;28;20045;-87
2023/05/01 00:17:16;;;;;;;9.88;6.13;;;;;;;;;;5013094;28;20034;-88
2023/05/01 00:19:42;;;;;;;7.53;5.20;;;;;;;;;;4998380;28;20073;-88
2023/05/01 00:22:07;;;;;;;12.63;5.82;;;;;;;;;;4981682;28;20045;-87
2023/05/01 00:24:33;;;;;;;11.98;6.28;;;;;;;;;;4998435;28;20148;-87
2023/05/01 00:26:58;;;;;;;11.85;5.90;;;;;;;;;;5000123;28;20037;-87
2023/05/01 00:29:24;;;;;;;10.15;6.15;;;;;;;;;;5013264;28;20041;-87
2023/05/01 00:31:49;;;;;;;8.73;5.78;;;;;;;;;;5009261;28;20527;-87
2023/05/01 00:34:15;;;;;;;8.52;5.57;;;;;;;;;;5012819;28;20031;-87
2023/05/01 00:36:41;;;;;;;7.85;5.57;;;;;;;;;;5017204;28;20041;-87
2023/05/01 00:39:06;;;;;;;6.65;4.78;;;;;;;;;;5001099;28;20134;-87
2023/05/01 00:41:36;;;;;;;8.57;5.20;;;;;;;;;;5000338;28;20507;-87
2023/05/01 00:44:02;;;;;;;6.93;5.28;;;;;;;;;;4998933;28;20039;-88
2023/05/01 00:46:29;;;;;;;8.65;5.55;;;;;;;;;;5017222;28;20046;-88
2023/05/01 00:48:56;;;;;;;8.05;5.63;;;;;;;;;;5002520;28;20491;-88
2023/05/01 00:51:22;;;;;;;9.38;5.70;;;;;;;;;;5014661;28;20037;-88
2023/05/01 00:53:48;;;;;;;7.50;5.38;;;;;;;;;;5001561;28;20026;-87
2023/05/01 00:56:14;;;;;;;7.10;5.10;;;;;;;;;;4997852;28;20038;-87
2023/05/01 00:58:40;;;;;;;8.32;5.20;;;;;;;;;;5012812;28;20045;-87
2023/05/01 01:01:08;;;;;;;7.93;5.40;;;;;;;;;;5012213;28;20033;-86
2023/05/01 01:03:34;;;;;;;8.85;5.47;;;;;;;;;;4996906;28;20046;-87
2023/05/01 01:06:18;;;;;;;8.02;5.40;;;;;;;;;;5017983;28;20112;-86
2023/05/01 01:08:52;;;;;;;7.90;5.30;;;;;;;;;;5002098;28;20578;-87
2023/05/01 01:11:41;;;;;;;9.07;5.38;;;;;;;;;;5013202;28;20030;-87
2023/05/01 01:14:13;;;;;;;8.15;5.75;;;;;;;;;;4982527;28;20495;-87
2023/05/01 01:16:43;;;;;;;6.90;5.18;;;;;;;;;;5010550;28;20040;-87
2023/05/01 01:19:41;;;;;;;9.45;5.88;;;;;;;;;;4992470;28;20034;-87
2023/05/01 01:22:17;;;;;;;10.43;6.00;;;;;;;;;;4996324;28;20039;-87
2023/05/01 01:25:20;;;;;;;7.00;5.57;;;;;;;;;;5002071;28;20180;-87
2023/05/01 01:28:20;;;;;;;9.63;5.85;;;;;;;;;;4997561;28;20093;-88
2023/05/01 01:31:05;;;;;;;8.52;5.82;;;;;;;;;;5011381;28;20034;-88
2023/05/01 01:33:49;;;;;;;12.48;6.13;;;;;;;;;;4977276;28;20130;-86
2023/05/01 01:36:18;;;;;;;8.38;5.47;;;;;;;;;;4992823;28;20034;-88
2023/05/01 01:38:57;;;;;;;7.78;5.97;;;;;;;;;;5011703;28;20042;-87
2023/05/01 01:41:29;;;;;;;8.48;5.20;;;;;;;;;;5012788;28;20053;-87
2023/05/01 01:44:07;;;;;;;7.18;5.43;;;;;;;;;;5000050;28;20038;-87
2023/05/01 01:46:38;;;;;;;9.35;5.63;;;;;;;;;;4998928;28;20030;-86
2023/05/01 01:49:13;;;;;;;10.20;6.45;;;;;;;;;;4997099;28;20100;-87
2023/05/01 01:51:40;;;;;;;10.18;6.10;;;;;;;;;;5005075;28;20013;-88
2023/05/01 01:54:10;;;;;;;9.98;6.00;;;;;;;;;;4998280;28;20443;-87
2023/05/01 01:56:37;;;;;;;9.65;5.97;;;;;;;;;;5013339;28;20393;-87
2023/05/01 01:59:04;;;;;;;9.60;5.85;;;;;;;;;;5012511;28;20117;-87
2023/05/01 02:01:32;;;;;;;7.90;5.10;;;;;;;;;;5000619;28;20117;-86
2023/05/01 02:03:59;;;;;;;7.05;4.93;;;;;;;;;;5000798;28;20506;-87
2023/05/01 02:06:26;;;;;;;7.03;4.80;;;;;;;;;;5030713;28;20066;-87
2023/05/01 02:08:52;;;;;;;6.70;5.20;;;;;;;;;;5028214;28;20033;-86
2023/05/01 02:11:20;;;;;;;6.90;5.20;;;;;;;;;;5009071;28;20069;-88
2023/05/01 02:13:48;;;;;;;8.95;5.70;;;;;;;;;;4986106;28;20042;-87
2023/05/01 02:16:15;;;;;;;8.60;5.95;;;;;;;;;;5018337;28;20041;-87
2023/05/01 02:18:41;;;;;;;9.07;5.90;;;;;;;;;;4997301;28;20041;-86
2023/05/01 02:21:09;;;;;;;8.75;6.00;;;;;;;;;;5013361;28;20038;-86
2023/05/01 02:23:37;;;;;;;7.50;5.80;;;;;;;;;;4996903;28;20507;-87
2023/05/01 02:26:04;;;;;;;8.57;5.80;;;;;;;;;;5012590;28;20042;-87
2023/05/01 02:28:30;;;;;;;8.30;5.65;;;;;;;;;;5012725;28;20038;-87
2023/05/01 02:30:56;;;;;;;9.73;5.90;;;;;;;;;;5012443;28;20040;-87
2023/05/01 02:33:21;;;;;;;7.90;5.40;;;;;;;;;;4995885;28;20035;-87
2023/05/01 02:35:48;;;;;;;10.18;6.07;;;;;;;;;;4995952;28;20049;-87
2023/05/01 02:38:16;;;;;;;10.18;6.03;;;;;;;;;;5025798;28;20033;-86
2023/05/01 02:40:55;;;;;;;9.80;5.90;;;;;;;;;;5028371;28;20032;-86
2023/05/01 02:43:22;;;;;;;6.68;5.25;;;;;;;;;;5007164;28;20030;-87
2023/05/01 02:45:50;;;;;;;8.90;5.38;;;;;;;;;;5021013;28;20044;-86
2023/05/01 02:48:21;;;;;;;7.40;5.53;;;;;;;;;;5010859;28;20026;-86
2023/05/01 02:50:48;;;;;;;7.85;5.50;;;;;;;;;;4996728;28;20092;-87
2023/05/01 02:53:15;;;;;;;8.35;5.18;;;;;;;;;;5012346;28;20109;-86
2023/05/01 02:55:47;;;;;;;7.40;5.43;;;;;;;;;;5011620;28;20066;-86
2023/05/01 02:58:16;;;;;;;7.82;5.38;;;;;;;;;;4996357;28;20034;-87
2023/05/01 03:00:43;;;;;;;7.63;5.55;;;;;;;;;;5011440;28;20039;-86
2023/05/01 03:03:09;;;;;;;6.97;5.28;;;;;;;;;;4996292;28;20062;-86
2023/05/01 03:05:35;;;;;;;7.55;5.57;;;;;;;;;;4995392;28;20042;-86
2023/05/01 03:08:01;;;;;;;7.85;5.40;;;;;;;;;;4979112;28;20056;-86
2023/05/01 03:10:27;;;;;;;10.38;5.60;;;;;;;;;;5006453;28;20032;-86
2023/05/01 03:12:52;;;;;;;7.68;5.25;;;;;;;;;;5027770;28;20030;-86
2023/05/01 03:15:17;;;;;;;8.77;5.32;;;;;;;;;;5024482;28;20053;-86
2023/05/01 03:17:43;;;;;;;8.27;5.35;;;;;;;;;;5021353;28;20113;-86
2023/05/01 03:20:09;;;;;;;6.65;5.07;;;;;;;;;;5003082;28;20512;-86
2023/05/01 03:22:35;;;;;;;10.70;5.32;;;;;;;;;;5000654;28;20061;-86
2023/05/01 03:25:01;;;;;;;7.18;4.80;;;;;;;;;;5012612;28;20043;-85
2023/05/01 03:27:29;;;;;;;7.47;5.30;;;;;;;;;;4995610;28;20100;-86
2023/05/01 03:29:55;;;;;;;7.65;5.35;;;;;;;;;;5025948;28;20034;-87
2023/05/01 03:32:22;;;;;;;7.35;5.68;;;;;;;;;;5024048;28;20518;-86
2023/05/01 03:34:48;;;;;;;8.70;5.30;;;;;;;;;;5021406;28;20030;-86
2023/05/01 03:37:15;;;;;;;7.13;5.00;;;;;;;;;;5001303;28;20045;-86
2023/05/01 03:39:41;;;;;;;9.30;5.40;;;;;;;;;;4998656;28;20037;-86
2023/05/01 03:42:25;;;;;;;7.47;5.88;;;;;;;;;;4997194;28;20100;-86
2023/05/01 03:44:56;;;;;;;7.57;5.40;;;;;;;;;;5010327;28;20065;-86
2023/05/01 03:47:22;;;;;;;8.00;5.57;;;;;;;;;;5011455;28;20034;-86
2023/05/01 03:49:48;;;;;;;7.20;5.43;;;;;;;;;;4996389;28;20030;-86
2023/05/01 03:52:14;;;;;;;8.35;5.60;;;;;;;;;;5011028;28;20033;-86
2023/05/01 03:54:40;;;;;;;8.20;4.80;;;;;;;;;;5006340;28;20038;-87
2023/05/01 03:57:32;;;;;;;8.85;4.90;;;;;;;;;;5010771;28;20582;-85
2023/05/01 03:59:58;;;;;;;8.05;5.18;;;;;;;;;;4991911;28;20034;-86
2023/05/01 04:02:23;;;;;;;8.52;5.18;;;;;;;;;;5009783;28;20472;-86
2023/05/01 04:04:49;;;;;;;9.20;5.28;;;;;;;;;;5023792;28;20530;-86
2023/05/01 04:07:15;;;;;;;7.85;5.13;;;;;;;;;;5019931;28;20042;-86
2023/05/01 04:09:47;;;;;;;9.00;5.07;;;;;;;;;;5016868;28;20054;-86
2023/05/01 04:12:12;;;;;;;7.43;5.57;;;;;;;;;;4996223;28;20037;-87
2023/05/01 04:14:38;;;;;;;7.28;5.38;;;;;;;;;;4994263;28;20070;-85
2023/05/01 04:17:04;;;;;;;7.63;5.50;;;;;;;;;;4994328;28;20035;-86
2023/05/01 04:19:34;;;;;;;9.68;6.10;;;;;;;;;;4993553;28;20215;-85
2023/05/01 04:22:02;;;;;;;9.95;5.97;;;;;;;;;;4998626;28;20400;-85
2023/05/01 04:24:30;;;;;;;8.77;5.90;;;;;;;;;;4992523;28;20043;-85
2023/05/01 04:26:55;;;;;;;10.43;6.07;;;;;;;;;;4994798;28;20038;-87
2023/05/01 04:29:21;;;;;;;8.23;5.93;;;;;;;;;;5009673;28;20117;-86
2023/05/01 04:31:46;;;;;;;7.63;5.32;;;;;;;;;;5013645;28;20133;-86
2023/05/01 04:34:12;;;;;;;10.00;5.95;;;;;;;;;;5009531;28;20061;-86
2023/05/01 04:36:37;;;;;;;8.13;6.15;;;;;;;;;;5007949;28;20515;-86
2023/05/01 04:39:03;;;;;;;11.23;6.22;;;;;;;;;;5021198;28;20042;-86
2023/05/01 04:41:29;;;;;;;9.77;5.90;;;;;;;;;;5000796;28;20124;-85
2023/05/01 04:43:55;;;;;;;8.48;5.28;;;;;;;;;;5014499;28;20121;-85
2023/05/01 04:46:20;;;;;;;8.52;5.45;;;;;;;;;;4995952;28;20412;-86
2023/05/01 04:48:46;;;;;;;6.68;5.30;;;;;;;;;;5017128;28;20676;-85
2023/05/01 04:51:11;;;;;;;7.55;5.47;;;;;;;;;;5009711;28;20153;-86
2023/05/01 04:53:38;;;;;;;7.53;5.90;;;;;;;;;;5006079;28;20033;-86
2023/05/01 04:56:06;;;;;;;8.70;6.45;;;;;;;;;;5001254;28;20412;-86
2023/05/01 04:58:32;;;;;;;8.82;5.78;;;;;;;;;;5016707;28;20541;-86
2023/05/01 05:01:03;;;;;;;9.05;6.63;;;;;;;;;;5009169;28;20035;-86
2023/05/01 05:03:29;;;;;;;6.63;5.10;;;;;;;;;;4992406;28;20038;-86
2023/05/01 05:05:54;;;;;;;7.93;5.75;;;;;;;;;;4989962;28;20511;-87
2023/05/01 05:08:20;;;;;;;6.38;4.88;;;;;;;;;;5008293;28;20030;-86
2023/05/01 05:10:57;;;;;;;7.72;6.30;;;;;;;;;;5000436;28;20038;-85
2023/05/01 05:13:30;;;;;;;8.95;6.32;;;;;;;;;;5002715;28;20022;-86
2023/05/01 05:16:01;;;;;;;7.03;5.50;;;;;;;;;;5000514;28;20038;-85
2023/05/01 05:18:27;;;;;;;8.48;5.60;;;;;;;;;;4999050;28;20104;-87
2023/05/01 05:20:53;;;;;;;9.27;5.50;;;;;;;;;;5013006;28;20038;-86
2023/05/01 05:23:20;;;;;;;7.93;5.53;;;;;;;;;;5011786;28;20412;-86
2023/05/01 05:25:45;;;;;;;7.85;5.50;;;;;;;;;;5012040;28;20034;-86
2023/05/01 05:28:11;;;;;;;9.32;5.60;;;;;;;;;;4996669;28;20046;-86
2023/05/01 05:30:38;;;;;;;10.32;6.00;;;;;;;;;;5012518;28;20034;-86
2023/05/01 05:33:07;;;;;;;8.77;6.32;;;;;;;;;;5007494;28;20030;-86
2023/05/01 05:35:33;;;;;;;11.88;7.88;;;;;;;;;;4996088;28;20038;-86
2023/05/01 05:37:59;;;;;;;13.90;8.70;;;;;;;;;;5003679;28;20037;-86
2023/05/01 05:40:25;;;;;;;12.60;8.40;;;;;;;;;;5004066;28;20531;-84
2023/05/01 05:42:56;;;;;;;10.73;7.50;;;;;;;;;;5011150;28;20101;-84
2023/05/01 05:45:22;;;;;;;9.95;6.50;;;;;;;;;;5003938;28;20044;-83
2023/05/01 05:47:48;;;;;;;11.50;7.68;;;;;;;;;;5012235;28;20022;-84
2023/05/01 05:50:14;;;;;;;13.32;6.85;;;;;;;;;;5016348;28;20119;-84
2023/05/01 05:52:40;;;;;;;10.43;7.13;;;;;;;;;;4980843;28;20489;-84
2023/05/01 05:55:07;;;;;;;9.52;6.25;;;;;;;;;;4996526;28;20038;-84
2023/05/01 05:57:36;;;;;;;8.38;5.80;;;;;;;;;;4995526;28;20038;-84
2023/05/01 06:00:04;;;;;;;8.45;6.15;;;;;;;;;;5011495;28;20069;-85
2023/05/01 06:02:37;;;;;;;7.57;5.40;;;;;;;;;;4998012;28;20030;-84
2023/05/01 06:05:04;;;;;;;8.80;5.55;;;;;;;;;;5005926;28;20568;-84
2023/05/01 06:07:29;;;;;;;7.60;5.82;;;;;;;;;;5015306;28;20121;-84
2023/05/01 06:10:00;;;;;;;6.10;4.70;;;;;;;;;;4980328;28;20404;-85
2023/05/01 06:12:26;;;;;;;6.20;5.22;;;;;;;;;;5012153;28;20060;-84
2023/05/01 06:14:52;;;;;;;6.53;5.20;;;;;;;;;;5012499;28;20406;-84
2023/05/01 06:17:18;;;;;;;6.53;4.80;;;;;;;;;;5003861;28;20415;-86
2023/05/01 06:19:43;;;;;;;8.60;4.60;;;;;;;;;;4999746;28;20045;-84
2023/05/01 06:22:10;;;;;;;5.80;4.88;;;;;;;;;;4996434;28;20152;-85
2023/05/01 06:24:45;;;;;;;6.75;4.90;;;;;;;;;;5013722;28;20436;-85
2023/05/01 06:27:11;;;;;;;8.20;4.95;;;;;;;;;;5003535;28;20499;-85
2023/05/01 06:29:37;;;;;;;6.85;5.07;;;;;;;;;;5012516;28;20109;-85
2023/05/01 06:32:03;;;;;;;6.93;5.05;;;;;;;;;;5022082;28;20514;-87
2023/05/01 06:34:29;;;;;;;6.30;4.70;;;;;;;;;;5014004;28;20030;-87
2023/05/01 06:36:55;;;;;;;6.05;4.90;;;;;;;;;;4996483;28;20125;-87
2023/05/01 06:39:21;;;;;;;8.73;5.30;;;;;;;;;;5011813;28;20061;-87
2023/05/01 06:41:47;;;;;;;7.28;4.72;;;;;;;;;;4994521;28;20399;-87
2023/05/01 06:44:15;;;;;;;6.72;5.10;;;;;;;;;;4992732;28;20034;-87
2023/05/01 06:46:41;;;;;;;6.43;5.00;;;;;;;;;;5011838;28;20046;-87
2023/05/01 06:49:06;;;;;;;8.90;5.50;;;;;;;;;;5007968;28;20040;-87
2023/05/01 06:51:32;;;;;;;8.45;5.32;;;;;;;;;;5021215;28;20029;-87
2023/05/01 06:53:58;;;;;;;8.93;5.55;;;;;;;;;;5002255;28;20070;-87
2023/05/01 06:56:23;;;;;;;7.05;4.90;;;;;;;;;;5016743;28;20046;-87
2023/05/01 06:58:49;;;;;;;7.85;4.85;;;;;;;;;;4997453;28;20038;-87
2023/05/01 07:01:16;;;;;;;8.07;5.25;;;;;;;;;;4997461;28;20057;-86
2023/05/01 07:03:41;;;;;;;7.22;5.38;;;;;;;;;;5011520;28;20049;-85
2023/05/01 07:06:07;;;;;;;8.23;5.30;;;;;;;;;;4997414;28;20038;-86
2023/05/01 07:08:32;;;;;;;8.45;4.70;;;;;;;;;;5001876;28;20034;-87
2023/05/01 07:10:58;;;;;;;6.25;4.80;;;;;;;;;;5002664;28;20497;-85
2023/05/01 07:13:25;;;;;;;8.18;5.15;;;;;;;;;;4978348;28;20034;-84
2023/05/01 07:15:50;;;;;;;8.38;5.05;;;;;;;;;;4995848;28;20045;-85
2023/05/01 07:18:16;;;;;;;5.97;4.60;;;;;;;;;;4993863;28;20034;-84
2023/05/01 07:20:41;;;;;;;6.75;4.30;;;;;;;;;;5011585;28;20049;-88
2023/05/01 07:23:08;;;;;;;8.23;4.53;;;;;;;;;;5000240;28;20122;-88
2023/05/01 07:25:36;;;;;;;5.47;4.60;;;;;;;;;;5013667;28;20039;-88
2023/05/01 07:28:04;;;;;;;6.88;4.78;;;;;;;;;;5019480;28;20049;-87
2023/05/01 07:30:29;;;;;;;5.22;4.35;;;;;;;;;;5001058;28;20129;-86
2023/05/01 07:32:58;;;;;;;8.13;4.60;;;;;;;;;;5025631;28;20502;-88
2023/05/01 07:35:24;;;;;;;5.38;4.13;;;;;;;;;;5000256;28;20034;-79
2023/05/01 07:37:50;;;;;;;6.75;4.40;;;;;;;;;;4998437;28;20057;-78
2023/05/01 07:40:19;;;;;;;9.68;4.68;;;;;;;;;;5012162;28;20076;-77
2023/05/01 07:42:44;;;;;;;5.57;4.13;;;;;;;;;;5009568;28;20101;-77
2023/05/01 07:45:10;;;;;;;5.35;4.10;;;;;;;;;;5010610;28;20046;-77
2023/05/01 07:47:36;;;;;;;6.03;4.30;;;;;;;;;;5003396;28;20042;-88
2023/05/01 07:50:02;;;;;;;6.65;4.47;;;;;;;;;;4997705;28;20529;-87
2023/05/01 07:52:27;;;;;;;5.40;4.45;;;;;;;;;;4997510;28;20042;-87
2023/05/01 07:54:53;;;;;;;6.72;4.47;;;;;;;;;;5005627;28;20112;-84
2023/05/01 07:57:19;;;;;;;5.50;4.40;;;;;;;;;;4994690;28;20046;-84
2023/05/01 07:59:44;;;;;;;5.88;4.53;;;;;;;;;;4999835;28;20046;-85
2023/05/01 08:02:10;;;;;;;7.95;4.60;;;;;;;;;;4994940;28;20034;-87
2023/05/01 08:04:35;;;;;;;6.25;4.47;;;;;;;;;;5009987;28;20496;-87
2023/05/01 08:07:02;;;;;;;8.82;4.53;;;;;;;;;;5011345;28;20053;-88
2023/05/01 08:09:28;;;;;;;6.47;4.63;;;;;;;;;;5007518;28;20033;-87
2023/05/01 08:11:53;;;;;;;5.88;4.30;;;;;;;;;;5006483;28;20056;-87
2023/05/01 08:14:19;;;;;;;5.97;4.68;;;;;;;;;;5003073;28;20587;-87
2023/05/01 08:16:44;;;;;;;6.85;4.28;;;;;;;;;;5014330;28;20116;-86
2023/05/01 08:19:10;;;;;;;6.40;4.30;;;;;;;;;;4996041;28;20093;-85
2023/05/01 08:21:35;;;;;;;6.53;4.20;;;;;;;;;;5001439;28;20403;-86
2023/05/01 08:24:00;;;;;;;7.85;4.20;;;;;;;;;;5025028;28;20034;-87
2023/05/01 08:26:26;;;;;;;5.55;4.25;;;;;;;;;;5006292;28;20423;-87
2023/05/01 08:28:51;;;;;;;5.75;4.13;;;;;;;;;;5020639;28;20053;-88
2023/05/01 08:31:18;;;;;;;5.32;4.18;;;;;;;;;;5001797;28;20098;-87
2023/05/01 08:33:44;;;;;;;5.43;4.40;;;;;;;;;;5000398;28;20070;-89
2023/05/01 08:36:10;;;;;;;5.43;3.95;;;;;;;;;;4997330;28;20377;-87
2023/05/01 08:38:38;;;;;;;6.75;4.47;;;;;;;;;;5004162;28;20080;-88
2023/05/01 08:41:05;;;;;;;6.15;4.47;;;;;;;;;;5006619;28;20069;-85
2023/05/01 08:43:30;;;;;;;6.53;4.40;;;;;;;;;;5007859;28;20054;-84
2023/05/01 08:46:01;;;;;;;5.32;4.07;;;;;;;;;;5001267;28;20045;-84
2023/05/01 08:48:28;;;;;;;6.22;4.13;;;;;;;;;;5001060;28;20102;-86
2023/05/01 08:50:58;;;;;;;11.05;4.50;;;;;;;;;;5003559;28;20050;-87
2023/05/01 08:53:25;;;;;;;6.95;4.60;;;;;;;;;;5014990;28;20092;-86
2023/05/01 08:55:51;;;;;;;6.78;4.63;;;;;;;;;;5013643;28;20065;-88
2023/05/01 08:58:18;;;;;;;6.80;4.60;;;;;;;;;;5011571;28;20041;-88
2023/05/01 09:00:45;;;;;;;8.48;4.72;;;;;;;;;;5017165;28;20045;-88
2023/05/01 09:03:14;;;;;;;10.05;4.78;;;;;;;;;;5004294;28;20042;-87
2023/05/01 09:05:40;;;;;;;6.30;4.85;;;;;;;;;;5006873;28;20121;-87
2023/05/01 09:08:05;;;;;;;6.07;4.50;;;;;;;;;;5002212;28;20878;-86
2023/05/01 09:10:32;;;;;;;8.52;4.85;;;;;;;;;;5012880;28;20117;-86
2023/05/01 09:13:00;;;;;;;5.53;4.28;;;;;;;;;;4999410;28;20034;-87
2023/05/01 09:15:27;;;;;;;6.57;4.20;;;;;;;;;;5004089;28;20049;-86
2023/05/01 09:17:54;;;;;;;6.35;4.38;;;;;;;;;;5009551;28;20095;-86
2023/05/01 09:20:20;;;;;;;8.60;4.93;;;;;;;;;;4999377;28;20045;-86
2023/05/01 09:22:45;;;;;;;7.32;4.75;;;;;;;;;;4997092;28;20042;-87
2023/05/01 09:25:11;;;;;;;7.00;4.50;;;;;;;;;;4998357;28;20409;-86
2023/05/01 09:27:37;;;;;;;7.47;5.05;;;;;;;;;;5009589;28;20390;-86
2023/05/01 09:30:05;;;;;;;6.28;4.40;;;;;;;;;;5002514;28;20038;-86
2023/05/01 09:32:31;;;;;;;5.82;4.40;;;;;;;;;;5003118;28;20045;-85
2023/05/01 09:35:13;;;;;;;5.63;4.07;;;;;;;;;;5004350;28;20030;-86
2023/05/01 09:37:39;;;;;;;6.15;4.70;;;;;;;;;;5011087;28;20530;-86
2023/05/01 09:40:09;;;;;;;5.57;4.18;;;;;;;;;;5022433;28;20037;-87
2023/05/01 09:42:57;;;;;;;5.88;4.60;;;;;;;;;;5000386;28;20030;-88
2023/05/01 09:45:23;;;;;;;6.63;4.65;;;;;;;;;;5001096;28;20065;-88
2023/05/01 09:47:48;;;;;;;5.63;3.97;;;;;;;;;;5019611;28;20054;-87
2023/05/01 09:50:34;;;;;;;6.28;4.00;;;;;;;;;;4998800;28;20044;-86
2023/05/01 09:53:00;;;;;;;4.82;3.97;;;;;;;;;;5023115;28;20117;-84
2023/05/01 09:55:26;;;;;;;5.70;4.18;;;;;;;;;;5000181;28;20098;-86
2023/05/01 09:57:52;;;;;;;5.55;3.75;;;;;;;;;;5002255;28;20061;-88
2023/05/01 10:00:20;;;;;;;5.00;3.83;;;;;;;;;;4996388;28;20049;-87
2023/05/01 10:02:48;;;;;;;4.72;3.80;;;;;;;;;;5017193;28;20045;-88
2023/05/01 10:05:14;;;;;;;6.63;3.92;;;;;;;;;;5020365;28;20129;-87
2023/05/01 10:07:56;;;;;;;5.07;3.80;;;;;;;;;;4999448;28;20543;-86
2023/05/01 10:10:21;;;;;;;5.53;4.25;;;;;;;;;;5017260;28;20041;-87
2023/05/01 10:12:47;;;;;;;5.15;3.90;;;;;;;;;;5001647;28;20034;-87
2023/05/01 10:15:13;;;;;;;5.13;4.00;;;;;;;;;;4998330;28;20428;-86
2023/05/01 10:17:40;;;;;;;5.85;4.45;;;;;;;;;;5028569;28;20049;-86
2023/05/01 10:20:07;;;;;;;5.10;4.32;;;;;;;;;;4998923;28;20459;-87
2023/05/01 10:22:33;;;;;;;6.60;4.50;;;;;;;;;;5016133;28;20088;-86
2023/05/01 10:25:00;;;;;;;7.18;4.47;;;;;;;;;;5006908;28;20030;-85
2023/05/01 10:27:26;;;;;;;5.45;4.40;;;;;;;;;;5000346;28;20038;-86
2023/05/01 10:29:52;;;;;;;6.68;5.32;;;;;;;;;;5018685;28;20467;-87
2023/05/01 10:32:19;;;;;;;5.75;4.72;;;;;;;;;;5007561;28;20042;-88
2023/05/01 10:34:54;;;;;;;6.38;3.95;;;;;;;;;;5007799;28;20235;-88
2023/05/01 10:37:38;;;;;;;6.05;3.97;;;;;;;;;;4999472;28;20038;-86
2023/05/01 10:40:37;;;;;;;6.07;4.40;;;;;;;;;;5015364;28;20035;-87
2023/05/01 10:43:16;;;;;;;5.45;4.30;;;;;;;;;;5002649;28;20050;-87
2023/05/01 10:45:43;;;;;;;5.72;4.32;;;;;;;;;;5021792;28;20041;-87
2023/05/01 10:48:09;;;;;;;16.05;4.40;;;;;;;;;;4998052;28;20041;-88
2023/05/01 10:50:35;;;;;;;5.28;3.80;;;;;;;;;;5009899;28;20046;-87
2023/05/01 10:53:10;;;;;;;5.18;4.20;;;;;;;;;;4998335;28;20031;-87
2023/05/01 10:55:54;;;;;;;6.32;4.20;;;;;;;;;;4999990;28;20133;-86
2023/05/01 10:58:35;;;;;;;5.13;4.20;;;;;;;;;;5004308;28;20046;-87
2023/05/01 11:01:26;;;;;;;7.05;4.43;;;;;;;;;;5005906;28;20436;-87
2023/05/01 11:03:51;;;;;;;5.35;4.10;;;;;;;;;;4997324;28;20038;-86
2023/05/01 11:06:16;;;;;;;6.20;4.18;;;;;;;;;;5020975;28;20184;-86
2023/05/01 11:08:44;;;;;;;5.30;4.40;;;;;;;;;;4998714;28;20035;-86
2023/05/01 11:11:18;;;;;;;5.05;4.55;;;;;;;;;;4998809;28;20153;-86
2023/05/01 11:13:56;;;;;;;5.22;4.32;;;;;;;;;;5004095;28;20374;-86
2023/05/01 11:16:37;;;;;;;6.25;4.30;;;;;;;;;;4982158;28;20620;-84
2023/05/01 11:19:08;;;;;;;6.55;4.65;;;;;;;;;;5006984;28;20042;-86
2023/05/01 11:21:35;;;;;;;4.97;4.35;;;;;;;;;;5017425;28;20027;-84
2023/05/01 11:24:07;;;;;;;7.28;3.97;;;;;;;;;;5001315;28;20656;-85
2023/05/01 11:26:37;;;;;;;5.32;3.90;;;;;;;;;;4998577;28;20027;-87
2023/05/01 11:29:04;;;;;;;6.68;4.53;;;;;;;;;;5012652;28;20042;-86
2023/05/01 11:31:31;;;;;;;5.82;4.53;;;;;;;;;;5012961;28;20092;-87
2023/05/01 11:33:58;;;;;;;6.68;4.47;;;;;;;;;;5001210;28;20030;-86
2023/05/01 11:36:25;;;;;;;5.43;4.50;;;;;;;;;;4997471;28;20061;-87
2023/05/01 11:38:56;;;;;;;5.72;4.03;;;;;;;;;;4997592;28;20042;-88
2023/05/01 11:41:23;;;;;;;5.07;4.13;;;;;;;;;;5007464;28;20552;-87
2023/05/01 11:43:50;;;;;;;4.70;3.88;;;;;;;;;;5003233;28;20045;-87
2023/05/01 11:46:29;;;;;;;6.15;3.80;;;;;;;;;;5004096;28;20045;-88
2023/05/01 11:48:56;;;;;;;5.13;3.90;;;;;;;;;;5017322;28;20038;-86
2023/05/01 11:51:23;;;;;;;4.88;3.97;;;;;;;;;;5005558;28;20034;-88
2023/05/01 11:53:59;;;;;;;5.45;4.15;;;;;;;;;;5021711;28;20071;-86
2023/05/01 11:56:25;;;;;;;4.95;3.42;;;;;;;;;;5004722;28;20038;-86
2023/05/01 11:58:51;;;;;;;3.92;3.40;;;;;;;;;;5003848;28;20033;-88
2023/05/01 12:01:17;;;;;;;5.72;3.65;;;;;;;;;;5012774;28;20069;-88
2023/05/01 12:03:43;;;;;;;5.22;3.58;;;;;;;;;;5000563;28;20038;-88
2023/05/01 12:06:12;;;;;;;4.32;3.40;;;;;;;;;;5004440;28;20034;-88
2023/05/01 12:08:42;;;;;;;4.47;3.80;;;;;;;;;;5000793;28;20042;-88
2023/05/01 12:11:08;;;;;;;4.68;3.95;;;;;;;;;;5014495;28;20061;-88
2023/05/01 12:13:34;;;;;;;5.97;3.50;;;;;;;;;;4998215;28;20038;-87
2023/05/01 12:16:00;;;;;;;4.10;3.70;;;;;;;;;;5014354;28;20034;-88
2023/05/01 12:18:25;;;;;;;4.00;3.60;;;;;;;;;;4994686;28;20026;-88
2023/05/01 12:20:53;;;;;;;4.95;3.50;;;;;;;;;;4996934;28;20027;-88
2023/05/01 12:23:30;;;;;;;4.65;3.60;;;;;;;;;;4996293;28;20045;-88
2023/05/01 12:25:56;;;;;;;4.95;3.50;;;;;;;;;;4998975;28;20046;-88
2023/05/01 12:28:21;;;;;;;5.03;4.05;;;;;;;;;;5006859;28;20044;-88
2023/05/01 12:30:50;;;;;;;5.40;3.97;;;;;;;;;;5012186;28;20046;-88
2023/05/01 12:33:18;;;;;;;5.00;4.20;;;;;;;;;;4997623;28;20064;-87
2023/05/01 12:35:46;;;;;;;7.22;4.32;;;;;;;;;;5019858;28;20041;-88
2023/05/01 12:38:22;;;;;;;5.68;4.18;;;;;;;;;;5019032;28;20050;-88
2023/05/01 12:40:58;;;;;;;5.97;4.30;;;;;;;;;;4998170;28;20064;-89
2023/05/01 12:43:29;;;;;;;6.03;4.40;;;;;;;;;;4997551;28;20117;-88
2023/05/01 12:45:55;;;;;;;6.30;4.20;;;;;;;;;;5007405;28;20586;-88
2023/05/01 12:48:22;;;;;;;5.70;3.60;;;;;;;;;;5010945;28;20101;-88
2023/05/01 12:50:53;;;;;;;4.63;3.80;;;;;;;;;;5005655;28;20037;-88
2023/05/01 12:53:20;;;;;;;4.47;3.75;;;;;;;;;;5000494;28;20408;-88
2023/05/01 12:55:48;;;;;;;5.80;3.65;;;;;;;;;;5002732;28;20045;-88
2023/05/01 12:58:15;;;;;;;4.50;3.47;;;;;;;;;;5011927;28;20056;-88
2023/05/01 13:00:45;;;;;;;5.93;3.70;;;;;;;;;;4994966;28;20034;-87
2023/05/01 13:03:12;;;;;;;4.28;3.30;;;;;;;;;;4996405;28;20050;-88
2023/05/01 13:05:53;;;;;;;5.32;3.42;;;;;;;;;;4994813;28;20070;-88
2023/05/01 13:08:27;;;;;;;4.03;2.90;;;;;;;;;;4992130;28;20062;-88
2023/05/01 13:10:53;;;;;;;;;;;;;;;;;;4998516;28;20026;-87
2023/05/01 13:13:30;;;;;;;3.75;2.85;;;;;;;;;;5006433;28;19917;-87
2023/05/01 13:16:11;;;;;;;4.00;2.70;;;;;;;;;;4993844;28;20439;-88
2023/05/01 13:18:48;;;;;;;4.90;2.83;;;;;;;;;;5003955;28;20034;-89
2023/05/01 13:21:17;;;;;;;4.57;3.20;;;;;;;;;;5007381;28;20035;-88
2023/05/01 13:23:58;;;;;;;6.68;3.50;;;;;;;;;;5012234;28;20066;-88
2023/05/01 13:26:32;;;;;;;3.40;2.83;;;;;;;;;;5018118;28;20033;-87
2023/05/01 13:28:59;;;;;;;5.30;3.13;;;;;;;;;;4994523;28;20088;-87
2023/05/01 13:31:25;;;;;;;3.67;3.00;;;;;;;;;;4996348;28;20035;-89
2023/05/01 13:33:52;;;;;;;4.38;3.45;;;;;;;;;;5007971;28;20035;-91
2023/05/01 13:36:18;;;;;;;4.32;3.30;;;;;;;;;;5016208;28;20041;-89
2023/05/01 13:38:54;;;;;;;4.00;3.30;;;;;;;;;;5028455;28;20034;-89
2023/05/01 13:41:21;;;;;;;3.90;3.50;;;;;;;;;;5000032;28;20130;-88
2023/05/01 13:43:48;;;;;;;4.43;3.17;;;;;;;;;;5013574;28;20564;-88
2023/05/01 13:46:16;;;;;;;4.35;3.50;;;;;;;;;;5001435;28;20053;-87
2023/05/01 13:48:42;;;;;;;4.10;3.25;;;;;;;;;;4999762;28;20038;-87
2023/05/01 13:51:09;;;;;;;4.30;3.30;;;;;;;;;;4997682;28;20034;-87
2023/05/01 13:53:36;;;;;;;5.32;3.33;;;;;;;;;;5015743;28;20096;-88
2023/05/01 13:56:03;;;;;;;4.35;3.38;;;;;;;;;;5012830;28;20034;-87
2023/05/01 13:58:29;;;;;;;4.05;3.10;;;;;;;;;;4997237;28;20589;-87
2023/05/01 14:00:55;;;;;;;4.18;2.72;;;;;;;;;;5004633;28;20061;-88
2023/05/01 14:03:21;;;;;;;4.57;3.40;;;;;;;;;;5020941;28;20508;-87
2023/05/01 14:05:47;;;;;;;5.50;3.22;;;;;;;;;;5004846;28;20042;-87
2023/05/01 14:08:13;;;;;;;3.72;3.15;;;;;;;;;;5004961;28;20038;-88
2023/05/01 14:10:39;;;;;;;5.85;3.50;;;;;;;;;;4998291;28;20030;-87
2023/05/01 14:13:04;;;;;;;3.97;3.35;;;;;;;;;;5003320;28;20042;-88
2023/05/01 14:15:32;;;;;;;3.83;3.33;;;;;;;;;;5003070;28;20034;-87
2023/05/01 14:18:04;;;;;;;4.60;3.42;;;;;;;;;;5016791;28;20122;-88
2023/05/01 14:20:30;;;;;;;4.40;3.40;;;;;;;;;;5013183;28;20049;-87
2023/05/01 14:22:55;;;;;;;3.97;3.00;;;;;;;;;;5005594;28;20046;-88
2023/05/01 14:25:23;;;;;;;3.75;3.00;;;;;;;;;;5008354;28;20042;-89
2023/05/01 14:27:50;;;;;;;3.88;3.00;;;;;;;;;;4997859;28;20042;-86
2023/05/01 14:30:36;;;;;;;3.90;2.78;;;;;;;;;;5012984;28;20303;-88
2023/05/01 14:33:03;;;;;;;4.18;2.88;;;;;;;;;;5003541;28;20038;-88
2023/05/01 14:35:28;;;;;;;4.30;2.85;;;;;;;;;;5002777;28;20128;-89
2023/05/01 14:37:55;;;;;;;5.03;3.25;;;;;;;;;;4997691;28;20064;-88
2023/05/01 14:40:29;;;;;;;5.13;3.17;;;;;;;;;;5011279;28;20038;-88
2023/05/01 14:42:56;;;;;;;3.75;3.05;;;;;;;;;;4997103;28;20041;-89
2023/05/01 14:45:22;;;;;;;3.60;3.20;;;;;;;;;;4996607;28;20404;-88
2023/05/01 14:47:48;;;;;;;4.10;3.25;;;;;;;;;;5004777;28;20046;-87
2023/05/01 14:50:22;;;;;;;3.65;3.20;;;;;;;;;;4997462;28;20444;-87